sensor_id;sensor_type;location;lat;lon;timestamp;P1;durP1;ratioP1;P2;durP2;ratioP2
12774;SDS011;6451;42.630;23.382;2023-07-31T00:02:11;3.90;;;3.50;;
12774;SDS011;6451;42.630;23.382;2023-07-31T00:04:38;3.70;;;3.40;;
12774;SDS011;6451;42.630;23.382;2023-07-31T00:07:05;3.78;;;3.47;;
12774;SDS011;6451;42.630;23.382;2023-07-31T00:09:32;4.20;;;3.80;;
12774;SDS011;6451;42.630;23.382;2023-07-31T00:11:59;3.85;;;3.47;;
12774;SDS011;6451;42.630;23.382;2023-07-31T00:14:26;4.15;;;3.50;;
12774;SDS011;6451;42.630;23.382;2023-07-31T00:16:53;3.58;;;3.28;;
12774;SDS011;6451;42.630;23.382;2023-07-31T00:19:21;4.97;;;3.70;;
12774;SDS011;6451;42.630;23.382;2023-07-31T00:21:48;4.00;;;3.67;;
12774;SDS011;6451;42.630;23.382;2023-07-31T00:24:16;4.03;;;3.60;;
12774;SDS011;6451;42.630;23.382;2023-07-31T00:26:44;4.35;;;3.60;;
12774;SDS011;6451;42.630;23.382;2023-07-31T00:29:11;4.55;;;3.95;;
12774;SDS011;6451;42.630;23.382;2023-07-31T00:31:38;4.22;;;3.90;;
12774;SDS011;6451;42.630;23.382;2023-07-31T00:34:05;4.28;;;3.90;;
12774;SDS011;6451;42.630;23.382;2023-07-31T00:36:33;4.50;;;4.10;;
12774;SDS011;6451;42.630;23.382;2023-07-31T00:39:00;5.55;;;4.28;;
12774;SDS011;6451;42.630;23.382;2023-07-31T00:41:27;5.93;;;4.50;;
12774;SDS011;6451;42.630;23.382;2023-07-31T00:43:54;4.25;;;3.85;;
12774;SDS011;6451;42.630;23.382;2023-07-31T00:46:27;4.63;;;4.10;;
12774;SDS011;6451;42.630;23.382;2023-07-31T00:48:54;4.95;;;4.35;;
12774;SDS011;6451;42.630;23.382;2023-07-31T00:51:21;5.30;;;4.47;;
12774;SDS011;6451;42.630;23.382;2023-07-31T00:53:49;4.47;;;4.07;;
12774;SDS011;6451;42.630;23.382;2023-07-31T00:56:20;4.75;;;4.35;;
12774;SDS011;6451;42.630;23.382;2023-07-31T00:58:47;5.45;;;4.95;;
12774;SDS011;6451;42.630;23.382;2023-07-31T01:01:14;5.60;;;5.10;;
12774;SDS011;6451;42.630;23.382;2023-07-31T01:03:41;5.80;;;5.38;;
12774;SDS011;6451;42.630;23.382;2023-07-31T01:06:11;5.90;;;5.40;;
12774;SDS011;6451;42.630;23.382;2023-07-31T01:08:44;6.32;;;5.82;;
12774;SDS011;6451;42.630;23.382;2023-07-31T01:11:22;6.72;;;6.03;;
12774;SDS011;6451;42.630;23.382;2023-07-31T01:13:55;5.90;;;5.43;;
12774;SDS011;6451;42.630;23.382;2023-07-31T01:16:24;6.90;;;6.30;;
12774;SDS011;6451;42.630;23.382;2023-07-31T01:18:51;6.93;;;6.25;;
12774;SDS011;6451;42.630;23.382;2023-07-31T01:21:21;7.20;;;6.60;;
12774;SDS011;6451;42.630;23.382;2023-07-31T01:24:04;7.18;;;6.53;;
12774;SDS011;6451;42.630;23.382;2023-07-31T01:26:51;7.78;;;7.07;;
12774;SDS011;6451;42.630;23.382;2023-07-31T01:29:23;8.60;;;7.85;;
12774;SDS011;6451;42.630;23.382;2023-07-31T01:31:59;8.68;;;7.93;;
12774;SDS011;6451;42.630;23.382;2023-07-31T01:34:29;10.88;;;10.00;;
12774;SDS011;6451;42.630;23.382;2023-07-31T01:36:57;12.50;;;11.40;;
12774;SDS011;6451;42.630;23.382;2023-07-31T01:39:24;13.85;;;12.75;;
12774;SDS011;6451;42.630;23.382;2023-07-31T01:41:53;14.55;;;13.35;;
12774;SDS011;6451;42.630;23.382;2023-07-31T01:44:21;17.10;;;15.70;;
12774;SDS011;6451;42.630;23.382;2023-07-31T01:46:48;18.48;;;16.77;;
12774;SDS011;6451;42.630;23.382;2023-07-31T01:49:15;20.02;;;17.95;;
12774;SDS011;6451;42.630;23.382;2023-07-31T01:51:42;20.50;;;18.77;;
12774;SDS011;6451;42.630;23.382;2023-07-31T01:54:09;22.48;;;20.48;;
12774;SDS011;6451;42.630;23.382;2023-07-31T01:56:36;22.67;;;20.75;;
12774;SDS011;6451;42.630;23.382;2023-07-31T01:59:04;24.17;;;22.00;;
12774;SDS011;6451;42.630;23.382;2023-07-31T02:01:31;24.30;;;22.10;;
12774;SDS011;6451;42.630;23.382;2023-07-31T02:03:58;24.92;;;22.77;;
12774;SDS011;6451;42.630;23.382;2023-07-31T02:06:25;25.08;;;22.70;;
12774;SDS011;6451;42.630;23.382;2023-07-31T02:08:52;25.95;;;23.48;;
12774;SDS011;6451;42.630;23.382;2023-07-31T02:11:19;25.83;;;23.52;;
12774;SDS011;6451;42.630;23.382;2023-07-31T02:13:46;26.85;;;24.40;;
12774;SDS011;6451;42.630;23.382;2023-07-31T02:16:14;26.17;;;23.70;;
12774;SDS011;6451;42.630;23.382;2023-07-31T02:18:41;26.77;;;24.27;;
12774;SDS011;6451;42.630;23.382;2023-07-31T02:21:11;25.50;;;23.23;;
12774;SDS011;6451;42.630;23.382;2023-07-31T02:23:38;25.35;;;22.88;;
12774;SDS011;6451;42.630;23.382;2023-07-31T02:26:05;25.13;;;22.92;;
12774;SDS011;6451;42.630;23.382;2023-07-31T02:28:31;26.15;;;23.75;;
12774;SDS011;6451;42.630;23.382;2023-07-31T02:30:58;26.15;;;23.88;;
12774;SDS011;6451;42.630;23.382;2023-07-31T02:33:27;26.73;;;24.42;;
12774;SDS011;6451;42.630;23.382;2023-07-31T02:35:53;25.23;;;22.83;;
12774;SDS011;6451;42.630;23.382;2023-07-31T02:38:20;25.05;;;22.67;;
12774;SDS011;6451;42.630;23.382;2023-07-31T02:40:47;26.33;;;24.10;;
12774;SDS011;6451;42.630;23.382;2023-07-31T02:43:14;26.42;;;24.10;;
12774;SDS011;6451;42.630;23.382;2023-07-31T02:45:42;25.80;;;23.50;;
12774;SDS011;6451;42.630;23.382;2023-07-31T02:48:09;24.27;;;22.20;;
12774;SDS011;6451;42.630;23.382;2023-07-31T02:50:37;25.50;;;23.30;;
12774;SDS011;6451;42.630;23.382;2023-07-31T02:53:04;25.95;;;23.67;;
12774;SDS011;6451;42.630;23.382;2023-07-31T02:55:31;25.48;;;23.25;;
12774;SDS011;6451;42.630;23.382;2023-07-31T02:57:57;25.10;;;22.80;;
12774;SDS011;6451;42.630;23.382;2023-07-31T03:00:24;24.27;;;22.15;;
12774;SDS011;6451;42.630;23.382;2023-07-31T03:02:51;25.00;;;22.70;;
12774;SDS011;6451;42.630;23.382;2023-07-31T03:05:18;24.95;;;22.60;;
12774;SDS011;6451;42.630;23.382;2023-07-31T03:07:46;24.98;;;22.77;;
12774;SDS011;6451;42.630;23.382;2023-07-31T03:10:13;24.55;;;22.35;;
12774;SDS011;6451;42.630;23.382;2023-07-31T03:12:41;24.38;;;22.17;;
12774;SDS011;6451;42.630;23.382;2023-07-31T03:15:08;24.92;;;22.80;;
12774;SDS011;6451;42.630;23.382;2023-07-31T03:17:36;24.98;;;22.38;;
12774;SDS011;6451;42.630;23.382;2023-07-31T03:20:03;23.73;;;21.52;;
12774;SDS011;6451;42.630;23.382;2023-07-31T03:22:30;24.63;;;22.42;;
12774;SDS011;6451;42.630;23.382;2023-07-31T03:24:58;24.85;;;22.63;;
12774;SDS011;6451;42.630;23.382;2023-07-31T03:27:25;25.92;;;23.52;;
12774;SDS011;6451;42.630;23.382;2023-07-31T03:29:52;25.00;;;22.80;;
12774;SDS011;6451;42.630;23.382;2023-07-31T03:32:19;25.55;;;23.25;;
12774;SDS011;6451;42.630;23.382;2023-07-31T03:34:46;24.20;;;21.88;;
12774;SDS011;6451;42.630;23.382;2023-07-31T03:37:13;24.75;;;22.33;;
12774;SDS011;6451;42.630;23.382;2023-07-31T03:39:40;25.85;;;23.60;;
12774;SDS011;6451;42.630;23.382;2023-07-31T03:42:09;25.08;;;22.77;;
12774;SDS011;6451;42.630;23.382;2023-07-31T03:44:36;24.88;;;22.67;;
12774;SDS011;6451;42.630;23.382;2023-07-31T03:47:03;23.92;;;21.60;;
12774;SDS011;6451;42.630;23.382;2023-07-31T03:49:31;24.42;;;22.02;;
12774;SDS011;6451;42.630;23.382;2023-07-31T03:51:58;26.48;;;23.85;;
12774;SDS011;6451;42.630;23.382;2023-07-31T03:54:25;25.25;;;22.95;;
12774;SDS011;6451;42.630;23.382;2023-07-31T03:56:51;24.83;;;22.52;;
12774;SDS011;6451;42.630;23.382;2023-07-31T03:59:20;25.70;;;23.20;;
12774;SDS011;6451;42.630;23.382;2023-07-31T04:01:46;24.33;;;21.85;;
12774;SDS011;6451;42.630;23.382;2023-07-31T04:04:13;25.73;;;23.13;;
12774;SDS011;6451;42.630;23.382;2023-07-31T04:06:40;26.40;;;23.75;;
12774;SDS011;6451;42.630;23.382;2023-07-31T04:09:07;25.50;;;23.10;;
12774;SDS011;6451;42.630;23.382;2023-07-31T04:11:34;25.15;;;22.65;;
12774;SDS011;6451;42.630;23.382;2023-07-31T04:14:01;25.73;;;23.23;;
12774;SDS011;6451;42.630;23.382;2023-07-31T04:16:29;24.92;;;22.45;;
12774;SDS011;6451;42.630;23.382;2023-07-31T04:18:56;26.42;;;23.80;;
12774;SDS011;6451;42.630;23.382;2023-07-31T04:21:23;26.55;;;23.83;;
12774;SDS011;6451;42.630;23.382;2023-07-31T04:23:50;26.85;;;24.23;;
12774;SDS011;6451;42.630;23.382;2023-07-31T04:26:20;25.38;;;22.83;;
12774;SDS011;6451;42.630;23.382;2023-07-31T04:28:48;25.92;;;23.58;;
12774;SDS011;6451;42.630;23.382;2023-07-31T04:31:14;26.08;;;23.58;;
12774;SDS011;6451;42.630;23.382;2023-07-31T04:33:43;27.27;;;24.50;;
12774;SDS011;6451;42.630;23.382;2023-07-31T04:36:12;24.48;;;22.17;;
12774;SDS011;6451;42.630;23.382;2023-07-31T04:38:39;25.77;;;23.27;;
12774;SDS011;6451;42.630;23.382;2023-07-31T04:41:06;27.10;;;24.50;;
12774;SDS011;6451;42.630;23.382;2023-07-31T04:43:33;24.40;;;22.00;;
12774;SDS011;6451;42.630;23.382;2023-07-31T04:46:00;24.40;;;22.10;;
12774;SDS011;6451;42.630;23.382;2023-07-31T04:48:27;24.30;;;22.10;;
12774;SDS011;6451;42.630;23.382;2023-07-31T04:50:55;24.27;;;21.98;;
12774;SDS011;6451;42.630;23.382;2023-07-31T04:53:22;23.05;;;20.83;;
12774;SDS011;6451;42.630;23.382;2023-07-31T04:55:49;23.60;;;21.30;;
12774;SDS011;6451;42.630;23.382;2023-07-31T04:58:16;20.58;;;18.67;;
12774;SDS011;6451;42.630;23.382;2023-07-31T05:00:43;17.63;;;15.95;;
12774;SDS011;6451;42.630;23.382;2023-07-31T05:03:10;20.05;;;18.15;;
12774;SDS011;6451;42.630;23.382;2023-07-31T05:05:37;21.05;;;19.08;;
12774;SDS011;6451;42.630;23.382;2023-07-31T05:08:05;21.48;;;19.55;;
12774;SDS011;6451;42.630;23.382;2023-07-31T05:10:32;21.70;;;19.60;;
12774;SDS011;6451;42.630;23.382;2023-07-31T05:12:59;21.27;;;19.25;;
12774;SDS011;6451;42.630;23.382;2023-07-31T05:15:26;21.52;;;19.60;;
12774;SDS011;6451;42.630;23.382;2023-07-31T05:17:53;20.63;;;18.73;;
12774;SDS011;6451;42.630;23.382;2023-07-31T05:20:20;20.10;;;18.30;;
12774;SDS011;6451;42.630;23.382;2023-07-31T05:22:47;20.30;;;18.45;;
12774;SDS011;6451;42.630;23.382;2023-07-31T05:25:17;19.73;;;17.92;;
12774;SDS011;6451;42.630;23.382;2023-07-31T05:27:44;17.90;;;16.30;;
12774;SDS011;6451;42.630;23.382;2023-07-31T05:30:11;19.05;;;17.25;;
12774;SDS011;6451;42.630;23.382;2023-07-31T05:32:37;18.95;;;17.35;;
12774;SDS011;6451;42.630;23.382;2023-07-31T05:35:05;18.38;;;16.75;;
12774;SDS011;6451;42.630;23.382;2023-07-31T05:37:32;17.58;;;15.98;;
12774;SDS011;6451;42.630;23.382;2023-07-31T05:39:59;18.15;;;16.35;;
12774;SDS011;6451;42.630;23.382;2023-07-31T05:42:27;16.17;;;14.50;;
12774;SDS011;6451;42.630;23.382;2023-07-31T05:44:54;15.02;;;13.73;;
12774;SDS011;6451;42.630;23.382;2023-07-31T05:47:21;15.57;;;14.18;;
12774;SDS011;6451;42.630;23.382;2023-07-31T05:49:48;14.70;;;13.30;;
12774;SDS011;6451;42.630;23.382;2023-07-31T05:52:17;14.60;;;13.30;;
12774;SDS011;6451;42.630;23.382;2023-07-31T05:54:44;13.23;;;12.13;;
12774;SDS011;6451;42.630;23.382;2023-07-31T05:57:12;11.90;;;10.80;;
12774;SDS011;6451;42.630;23.382;2023-07-31T05:59:40;11.25;;;10.15;;
12774;SDS011;6451;42.630;23.382;2023-07-31T06:02:07;11.00;;;10.10;;
12774;SDS011;6451;42.630;23.382;2023-07-31T06:04:34;9.55;;;8.55;;
12774;SDS011;6451;42.630;23.382;2023-07-31T06:07:01;9.00;;;8.20;;
12774;SDS011;6451;42.630;23.382;2023-07-31T06:09:29;9.45;;;8.60;;
12774;SDS011;6451;42.630;23.382;2023-07-31T06:11:56;9.27;;;8.40;;
12774;SDS011;6451;42.630;23.382;2023-07-31T06:14:24;8.25;;;7.55;;
12774;SDS011;6451;42.630;23.382;2023-07-31T06:16:53;7.55;;;6.85;;
12774;SDS011;6451;42.630;23.382;2023-07-31T06:19:19;7.93;;;7.22;;
12774;SDS011;6451;42.630;23.382;2023-07-31T06:21:46;6.82;;;6.32;;
12774;SDS011;6451;42.630;23.382;2023-07-31T06:24:13;7.53;;;6.82;;
12774;SDS011;6451;42.630;23.382;2023-07-31T06:26:44;6.90;;;6.20;;
12774;SDS011;6451;42.630;23.382;2023-07-31T06:29:11;7.07;;;6.43;;
12774;SDS011;6451;42.630;23.382;2023-07-31T06:31:38;7.22;;;6.38;;
12774;SDS011;6451;42.630;23.382;2023-07-31T06:34:06;6.43;;;5.90;;
12774;SDS011;6451;42.630;23.382;2023-07-31T06:36:35;5.32;;;4.93;;
12774;SDS011;6451;42.630;23.382;2023-07-31T06:39:02;4.45;;;4.05;;
12774;SDS011;6451;42.630;23.382;2023-07-31T06:41:29;4.63;;;4.22;;
12774;SDS011;6451;42.630;23.382;2023-07-31T06:43:56;4.60;;;4.20;;
12774;SDS011;6451;42.630;23.382;2023-07-31T06:46:23;4.63;;;4.25;;
12774;SDS011;6451;42.630;23.382;2023-07-31T06:48:50;4.85;;;4.45;;
12774;SDS011;6451;42.630;23.382;2023-07-31T06:51:18;5.15;;;4.53;;
12774;SDS011;6451;42.630;23.382;2023-07-31T06:53:45;5.28;;;4.78;;
12774;SDS011;6451;42.630;23.382;2023-07-31T06:56:12;5.05;;;4.57;;
12774;SDS011;6451;42.630;23.382;2023-07-31T06:58:39;5.45;;;4.60;;
12774;SDS011;6451;42.630;23.382;2023-07-31T07:01:06;5.55;;;5.05;;
12774;SDS011;6451;42.630;23.382;2023-07-31T07:03:33;5.00;;;4.60;;
12774;SDS011;6451;42.630;23.382;2023-07-31T07:05:59;5.97;;;4.65;;
12774;SDS011;6451;42.630;23.382;2023-07-31T07:08:28;4.97;;;4.57;;
12774;SDS011;6451;42.630;23.382;2023-07-31T07:10:55;4.93;;;4.45;;
12774;SDS011;6451;42.630;23.382;2023-07-31T07:13:22;5.10;;;4.18;;
12774;SDS011;6451;42.630;23.382;2023-07-31T07:15:49;4.20;;;3.90;;
12774;SDS011;6451;42.630;23.382;2023-07-31T07:18:16;4.10;;;3.70;;
12774;SDS011;6451;42.630;23.382;2023-07-31T07:20:47;4.38;;;3.70;;
12774;SDS011;6451;42.630;23.382;2023-07-31T07:23:14;7.30;;;3.67;;
12774;SDS011;6451;42.630;23.382;2023-07-31T07:25:43;4.78;;;3.75;;
12774;SDS011;6451;42.630;23.382;2023-07-31T07:28:11;3.70;;;3.40;;
12774;SDS011;6451;42.630;23.382;2023-07-31T07:30:38;3.90;;;3.58;;
12774;SDS011;6451;42.630;23.382;2023-07-31T07:33:05;4.43;;;3.88;;
12774;SDS011;6451;42.630;23.382;2023-07-31T07:35:33;6.47;;;3.40;;
12774;SDS011;6451;42.630;23.382;2023-07-31T07:38:01;3.67;;;3.38;;
12774;SDS011;6451;42.630;23.382;2023-07-31T07:40:28;5.80;;;3.25;;
12774;SDS011;6451;42.630;23.382;2023-07-31T07:42:56;3.55;;;3.10;;
12774;SDS011;6451;42.630;23.382;2023-07-31T07:45:25;3.60;;;3.30;;
12774;SDS011;6451;42.630;23.382;2023-07-31T07:47:52;3.42;;;3.10;;
12774;SDS011;6451;42.630;23.382;2023-07-31T07:50:19;3.72;;;3.33;;
12774;SDS011;6451;42.630;23.382;2023-07-31T07:52:47;3.42;;;3.13;;
12774;SDS011;6451;42.630;23.382;2023-07-31T07:55:14;3.90;;;3.20;;
12774;SDS011;6451;42.630;23.382;2023-07-31T07:57:41;5.40;;;3.40;;
12774;SDS011;6451;42.630;23.382;2023-07-31T08:00:11;4.20;;;3.40;;
12774;SDS011;6451;42.630;23.382;2023-07-31T08:02:38;3.38;;;3.08;;
12774;SDS011;6451;42.630;23.382;2023-07-31T08:05:05;4.95;;;3.03;;
12774;SDS011;6451;42.630;23.382;2023-07-31T08:07:33;3.35;;;3.05;;
12774;SDS011;6451;42.630;23.382;2023-07-31T08:10:00;4.18;;;3.28;;
12774;SDS011;6451;42.630;23.382;2023-07-31T08:12:27;3.88;;;3.40;;
12774;SDS011;6451;42.630;23.382;2023-07-31T08:14:54;3.40;;;3.10;;
12774;SDS011;6451;42.630;23.382;2023-07-31T08:17:22;3.10;;;2.88;;
12774;SDS011;6451;42.630;23.382;2023-07-31T08:19:49;4.15;;;3.00;;
12774;SDS011;6451;42.630;23.382;2023-07-31T08:22:16;3.00;;;2.70;;
12774;SDS011;6451;42.630;23.382;2023-07-31T08:24:43;3.58;;;3.10;;
12774;SDS011;6451;42.630;23.382;2023-07-31T08:27:10;3.20;;;2.95;;
12774;SDS011;6451;42.630;23.382;2023-07-31T08:29:37;3.20;;;2.90;;
12774;SDS011;6451;42.630;23.382;2023-07-31T08:32:04;3.15;;;2.95;;
12774;SDS011;6451;42.630;23.382;2023-07-31T08:34:33;3.92;;;2.80;;
12774;SDS011;6451;42.630;23.382;2023-07-31T08:37:00;4.38;;;3.00;;
12774;SDS011;6451;42.630;23.382;2023-07-31T08:39:27;4.45;;;3.28;;
12774;SDS011;6451;42.630;23.382;2023-07-31T08:41:57;3.25;;;2.95;;
12774;SDS011;6451;42.630;23.382;2023-07-31T08:44:25;3.25;;;2.92;;
12774;SDS011;6451;42.630;23.382;2023-07-31T08:46:52;4.03;;;3.00;;
12774;SDS011;6451;42.630;23.382;2023-07-31T08:49:20;3.50;;;3.17;;
12774;SDS011;6451;42.630;23.382;2023-07-31T08:51:50;3.78;;;3.22;;
12774;SDS011;6451;42.630;23.382;2023-07-31T08:54:19;4.28;;;3.20;;
12774;SDS011;6451;42.630;23.382;2023-07-31T08:56:47;6.10;;;3.28;;
12774;SDS011;6451;42.630;23.382;2023-07-31T08:59:14;3.10;;;2.90;;
12774;SDS011;6451;42.630;23.382;2023-07-31T09:01:43;3.88;;;3.03;;
12774;SDS011;6451;42.630;23.382;2023-07-31T09:04:15;3.28;;;2.97;;
12774;SDS011;6451;42.630;23.382;2023-07-31T09:06:45;3.63;;;3.10;;
12774;SDS011;6451;42.630;23.382;2023-07-31T09:09:15;3.45;;;3.15;;
12774;SDS011;6451;42.630;23.382;2023-07-31T09:11:42;3.72;;;2.90;;
12774;SDS011;6451;42.630;23.382;2023-07-31T09:14:10;2.97;;;2.75;;
12774;SDS011;6451;42.630;23.382;2023-07-31T09:16:51;4.32;;;3.05;;
12774;SDS011;6451;42.630;23.382;2023-07-31T09:19:24;3.38;;;2.60;;
12774;SDS011;6451;42.630;23.382;2023-07-31T09:21:53;3.63;;;2.90;;
12774;SDS011;6451;42.630;23.382;2023-07-31T09:24:26;3.00;;;2.75;;
12774;SDS011;6451;42.630;23.382;2023-07-31T09:26:55;3.00;;;2.80;;
12774;SDS011;6451;42.630;23.382;2023-07-31T09:29:23;4.18;;;2.75;;
12774;SDS011;6451;42.630;23.382;2023-07-31T09:31:52;3.03;;;2.70;;
12774;SDS011;6451;42.630;23.382;2023-07-31T09:34:22;3.03;;;2.80;;
12774;SDS011;6451;42.630;23.382;2023-07-31T09:36:57;3.00;;;2.72;;
12774;SDS011;6451;42.630;23.382;2023-07-31T09:39:29;3.10;;;2.80;;
12774;SDS011;6451;42.630;23.382;2023-07-31T09:42:01;3.20;;;2.90;;
12774;SDS011;6451;42.630;23.382;2023-07-31T09:44:37;4.18;;;3.03;;
12774;SDS011;6451;42.630;23.382;2023-07-31T09:47:05;3.33;;;3.03;;
12774;SDS011;6451;42.630;23.382;2023-07-31T09:49:32;3.13;;;2.83;;
12774;SDS011;6451;42.630;23.382;2023-07-31T09:51:59;3.85;;;3.40;;
12774;SDS011;6451;42.630;23.382;2023-07-31T09:54:26;3.28;;;2.97;;
12774;SDS011;6451;42.630;23.382;2023-07-31T09:56:55;4.22;;;2.90;;
12774;SDS011;6451;42.630;23.382;2023-07-31T09:59:24;3.33;;;3.00;;
12774;SDS011;6451;42.630;23.382;2023-07-31T10:01:51;2.92;;;2.67;;
12774;SDS011;6451;42.630;23.382;2023-07-31T10:04:21;3.30;;;3.00;;
12774;SDS011;6451;42.630;23.382;2023-07-31T10:06:53;4.28;;;3.20;;
12774;SDS011;6451;42.630;23.382;2023-07-31T10:09:23;3.35;;;2.95;;
12774;SDS011;6451;42.630;23.382;2023-07-31T10:11:59;3.42;;;3.13;;
12774;SDS011;6451;42.630;23.382;2023-07-31T10:14:27;3.47;;;3.10;;
12774;SDS011;6451;42.630;23.382;2023-07-31T10:16:54;3.83;;;2.70;;
12774;SDS011;6451;42.630;23.382;2023-07-31T10:19:22;4.13;;;2.60;;
12774;SDS011;6451;42.630;23.382;2023-07-31T10:21:49;2.40;;;2.10;;
12774;SDS011;6451;42.630;23.382;2023-07-31T10:24:18;3.08;;;2.50;;
12774;SDS011;6451;42.630;23.382;2023-07-31T10:26:47;6.05;;;2.40;;
12774;SDS011;6451;42.630;23.382;2023-07-31T10:29:16;2.53;;;2.33;;
12774;SDS011;6451;42.630;23.382;2023-07-31T10:31:45;5.45;;;2.22;;
12774;SDS011;6451;42.630;23.382;2023-07-31T10:34:13;2.50;;;2.30;;
12774;SDS011;6451;42.630;23.382;2023-07-31T10:36:41;2.95;;;2.45;;
12774;SDS011;6451;42.630;23.382;2023-07-31T10:39:33;3.45;;;2.15;;
12774;SDS011;6451;42.630;23.382;2023-07-31T10:42:09;3.05;;;2.53;;
12774;SDS011;6451;42.630;23.382;2023-07-31T10:44:46;2.38;;;2.17;;
12774;SDS011;6451;42.630;23.382;2023-07-31T10:47:14;2.40;;;2.20;;
12774;SDS011;6451;42.630;23.382;2023-07-31T10:49:44;2.50;;;2.30;;
12774;SDS011;6451;42.630;23.382;2023-07-31T10:52:12;2.35;;;2.05;;
12774;SDS011;6451;42.630;23.382;2023-07-31T10:54:40;2.25;;;2.05;;
12774;SDS011;6451;42.630;23.382;2023-07-31T10:57:18;2.40;;;2.20;;
12774;SDS011;6451;42.630;23.382;2023-07-31T10:59:47;4.82;;;2.28;;
12774;SDS011;6451;42.630;23.382;2023-07-31T11:02:25;3.38;;;2.22;;
12774;SDS011;6451;42.630;23.382;2023-07-31T11:05:08;2.42;;;2.22;;
12774;SDS011;6451;42.630;23.382;2023-07-31T11:07:48;2.15;;;1.95;;
12774;SDS011;6451;42.630;23.382;2023-07-31T11:10:16;2.95;;;2.30;;
12774;SDS011;6451;42.630;23.382;2023-07-31T11:12:44;2.15;;;1.90;;
12774;SDS011;6451;42.630;23.382;2023-07-31T11:15:14;4.13;;;2.15;;
12774;SDS011;6451;42.630;23.382;2023-07-31T11:17:42;2.00;;;1.90;;
12774;SDS011;6451;42.630;23.382;2023-07-31T11:20:09;3.63;;;2.10;;
12774;SDS011;6451;42.630;23.382;2023-07-31T11:22:37;2.08;;;1.90;;
12774;SDS011;6451;42.630;23.382;2023-07-31T11:25:05;4.53;;;2.22;;
12774;SDS011;6451;42.630;23.382;2023-07-31T11:27:38;2.35;;;2.10;;
12774;SDS011;6451;42.630;23.382;2023-07-31T11:30:07;5.05;;;2.20;;
12774;SDS011;6451;42.630;23.382;2023-07-31T11:32:37;2.10;;;1.90;;
12774;SDS011;6451;42.630;23.382;2023-07-31T11:35:04;3.00;;;2.00;;
12774;SDS011;6451;42.630;23.382;2023-07-31T11:37:39;2.38;;;2.00;;
12774;SDS011;6451;42.630;23.382;2023-07-31T11:40:07;2.10;;;1.90;;
12774;SDS011;6451;42.630;23.382;2023-07-31T11:42:35;3.00;;;2.00;;
12774;SDS011;6451;42.630;23.382;2023-07-31T11:45:03;2.13;;;1.92;;
12774;SDS011;6451;42.630;23.382;2023-07-31T11:47:31;2.70;;;1.90;;
12774;SDS011;6451;42.630;23.382;2023-07-31T11:50:03;2.42;;;1.95;;
12774;SDS011;6451;42.630;23.382;2023-07-31T11:52:32;3.08;;;2.17;;
12774;SDS011;6451;42.630;23.382;2023-07-31T11:55:04;2.95;;;2.15;;
12774;SDS011;6451;42.630;23.382;2023-07-31T11:57:34;2.38;;;2.17;;
12774;SDS011;6451;42.630;23.382;2023-07-31T12:00:04;2.65;;;2.20;;
12774;SDS011;6451;42.630;23.382;2023-07-31T12:02:33;3.45;;;2.50;;
12774;SDS011;6451;42.630;23.382;2023-07-31T12:05:02;6.55;;;2.85;;
12774;SDS011;6451;42.630;23.382;2023-07-31T12:07:42;2.78;;;2.35;;
12774;SDS011;6451;42.630;23.382;2023-07-31T12:10:22;3.42;;;2.40;;
12774;SDS011;6451;42.630;23.382;2023-07-31T12:13:00;3.88;;;2.50;;
12774;SDS011;6451;42.630;23.382;2023-07-31T12:15:37;2.95;;;2.58;;
12774;SDS011;6451;42.630;23.382;2023-07-31T12:18:06;2.65;;;2.45;;
12774;SDS011;6451;42.630;23.382;2023-07-31T12:20:39;4.03;;;2.78;;
12774;SDS011;6451;42.630;23.382;2023-07-31T12:23:07;2.75;;;2.40;;
12774;SDS011;6451;42.630;23.382;2023-07-31T12:25:39;3.20;;;2.65;;
12774;SDS011;6451;42.630;23.382;2023-07-31T12:28:06;4.05;;;2.80;;
12774;SDS011;6451;42.630;23.382;2023-07-31T12:30:37;3.20;;;2.70;;
12774;SDS011;6451;42.630;23.382;2023-07-31T12:33:05;3.45;;;3.15;;
12774;SDS011;6451;42.630;23.382;2023-07-31T12:35:38;3.42;;;3.13;;
12774;SDS011;6451;42.630;23.382;2023-07-31T12:38:08;3.30;;;3.10;;
12774;SDS011;6451;42.630;23.382;2023-07-31T12:40:36;5.40;;;4.20;;
12774;SDS011;6451;42.630;23.382;2023-07-31T12:43:03;4.63;;;4.25;;
12774;SDS011;6451;42.630;23.382;2023-07-31T12:45:31;5.72;;;4.68;;
12774;SDS011;6451;42.630;23.382;2023-07-31T12:47:59;5.13;;;4.72;;
12774;SDS011;6451;42.630;23.382;2023-07-31T12:50:26;4.80;;;4.40;;
12774;SDS011;6451;42.630;23.382;2023-07-31T12:52:54;5.10;;;4.70;;
12774;SDS011;6451;42.630;23.382;2023-07-31T12:55:21;4.50;;;4.20;;
12774;SDS011;6451;42.630;23.382;2023-07-31T12:57:50;4.50;;;4.10;;
12774;SDS011;6451;42.630;23.382;2023-07-31T13:00:17;4.50;;;4.10;;
12774;SDS011;6451;42.630;23.382;2023-07-31T13:02:44;4.47;;;4.18;;
12774;SDS011;6451;42.630;23.382;2023-07-31T13:05:11;4.85;;;4.30;;
12774;SDS011;6451;42.630;23.382;2023-07-31T13:07:38;4.68;;;4.28;;
12774;SDS011;6451;42.630;23.382;2023-07-31T13:10:07;4.85;;;4.28;;
12774;SDS011;6451;42.630;23.382;2023-07-31T13:12:35;5.20;;;4.80;;
12774;SDS011;6451;42.630;23.382;2023-07-31T13:15:01;5.30;;;4.90;;
12774;SDS011;6451;42.630;23.382;2023-07-31T13:17:29;5.38;;;4.97;;
12774;SDS011;6451;42.630;23.382;2023-07-31T13:19:56;5.25;;;4.85;;
12774;SDS011;6451;42.630;23.382;2023-07-31T13:22:23;4.90;;;4.40;;
12774;SDS011;6451;42.630;23.382;2023-07-31T13:24:50;5.72;;;5.22;;
12774;SDS011;6451;42.630;23.382;2023-07-31T13:27:19;5.80;;;5.38;;
12774;SDS011;6451;42.630;23.382;2023-07-31T13:29:47;5.72;;;5.22;;
12774;SDS011;6451;42.630;23.382;2023-07-31T13:32:15;5.60;;;4.95;;
12774;SDS011;6451;42.630;23.382;2023-07-31T13:34:44;6.70;;;4.97;;
12774;SDS011;6451;42.630;23.382;2023-07-31T13:37:11;5.20;;;4.80;;
12774;SDS011;6451;42.630;23.382;2023-07-31T13:39:38;5.25;;;4.85;;
12774;SDS011;6451;42.630;23.382;2023-07-31T13:42:06;5.40;;;4.90;;
12774;SDS011;6451;42.630;23.382;2023-07-31T13:44:35;4.50;;;4.10;;
12774;SDS011;6451;42.630;23.382;2023-07-31T13:47:02;4.53;;;3.97;;
12774;SDS011;6451;42.630;23.382;2023-07-31T13:49:30;4.65;;;4.32;;
12774;SDS011;6451;42.630;23.382;2023-07-31T13:51:57;4.68;;;4.07;;
12774;SDS011;6451;42.630;23.382;2023-07-31T13:54:24;4.38;;;3.95;;
12774;SDS011;6451;42.630;23.382;2023-07-31T13:56:52;4.28;;;3.97;;
12774;SDS011;6451;42.630;23.382;2023-07-31T13:59:19;4.18;;;3.60;;
12774;SDS011;6451;42.630;23.382;2023-07-31T14:01:48;4.60;;;4.28;;
12774;SDS011;6451;42.630;23.382;2023-07-31T14:04:16;5.35;;;4.15;;
12774;SDS011;6451;42.630;23.382;2023-07-31T14:06:44;4.88;;;3.90;;
12774;SDS011;6451;42.630;23.382;2023-07-31T14:09:13;4.85;;;3.85;;
12774;SDS011;6451;42.630;23.382;2023-07-31T14:11:40;7.72;;;3.88;;
12774;SDS011;6451;42.630;23.382;2023-07-31T14:14:08;4.25;;;3.90;;
12774;SDS011;6451;42.630;23.382;2023-07-31T14:16:35;5.47;;;3.70;;
12774;SDS011;6451;42.630;23.382;2023-07-31T14:19:04;4.15;;;3.50;;
12774;SDS011;6451;42.630;23.382;2023-07-31T14:21:31;4.07;;;3.78;;
12774;SDS011;6451;42.630;23.382;2023-07-31T14:23:58;4.22;;;3.63;;
12774;SDS011;6451;42.630;23.382;2023-07-31T14:26:24;4.85;;;3.75;;
12774;SDS011;6451;42.630;23.382;2023-07-31T14:28:52;4.18;;;3.78;;
12774;SDS011;6451;42.630;23.382;2023-07-31T14:31:19;4.88;;;3.90;;
12774;SDS011;6451;42.630;23.382;2023-07-31T14:33:46;5.70;;;4.07;;
12774;SDS011;6451;42.630;23.382;2023-07-31T14:36:15;4.53;;;3.65;;
12774;SDS011;6451;42.630;23.382;2023-07-31T14:38:42;4.47;;;4.13;;
12774;SDS011;6451;42.630;23.382;2023-07-31T14:41:09;4.47;;;4.00;;
12774;SDS011;6451;42.630;23.382;2023-07-31T14:43:36;4.43;;;4.00;;
12774;SDS011;6451;42.630;23.382;2023-07-31T14:46:04;4.80;;;3.63;;
12774;SDS011;6451;42.630;23.382;2023-07-31T14:48:31;4.97;;;4.47;;